sensor_id;sensor_type;location;lat;lon;timestamp;pressure;altitude;pressure_sealevel;temperature;humidity
19286;BME280;9776;50.798;6.430;2023-02-16T00:00:14;101096.34;;;5.81;61.50
19286;BME280;9776;50.798;6.430;2023-02-16T00:02:43;101086.72;;;5.82;61.44
19286;BME280;9776;50.798;6.430;2023-02-16T00:05:22;101093.47;;;5.71;61.53
19286;BME280;9776;50.798;6.430;2023-02-16T00:07:49;101104.28;;;5.67;61.68
19286;BME280;9776;50.798;6.430;2023-02-16T00:10:16;101103.53;;;5.65;61.71
19286;BME280;9776;50.798;6.430;2023-02-16T00:12:42;101106.16;;;5.65;61.53
19286;BME280;9776;50.798;6.430;2023-02-16T00:15:27;101105.59;;;5.60;61.55
19286;BME280;9776;50.798;6.430;2023-02-16T00:17:57;101101.19;;;5.60;61.67
19286;BME280;9776;50.798;6.430;2023-02-16T00:20:24;101098.69;;;5.59;61.50
19286;BME280;9776;50.798;6.430;2023-02-16T00:22:51;101095.44;;;5.55;61.52
19286;BME280;9776;50.798;6.430;2023-02-16T00:25:18;101093.19;;;5.49;61.81
19286;BME280;9776;50.798;6.430;2023-02-16T00:27:44;101090.78;;;5.46;61.75
19286;BME280;9776;50.798;6.430;2023-02-16T00:30:13;101090.25;;;5.41;61.93
19286;BME280;9776;50.798;6.430;2023-02-16T00:32:40;101092.53;;;5.46;61.75
19286;BME280;9776;50.798;6.430;2023-02-16T00:35:13;101081.03;;;5.48;61.63
19286;BME280;9776;50.798;6.430;2023-02-16T00:37:39;101089.66;;;5.50;61.75
19286;BME280;9776;50.798;6.430;2023-02-16T00:40:07;101086.63;;;5.56;61.59
19286;BME280;9776;50.798;6.430;2023-02-16T00:42:34;101087.25;;;5.60;61.29
19286;BME280;9776;50.798;6.430;2023-02-16T00:45:01;101087.38;;;5.58;61.41
19286;BME280;9776;50.798;6.430;2023-02-16T00:47:31;101080.69;;;5.67;61.26
19286;BME280;9776;50.798;6.430;2023-02-16T00:49:59;101073.38;;;5.72;61.19
19286;BME280;9776;50.798;6.430;2023-02-16T00:52:32;101073.94;;;5.77;61.04
19286;BME280;9776;50.798;6.430;2023-02-16T00:55:02;101078.88;;;5.82;60.87
19286;BME280;9776;50.798;6.430;2023-02-16T00:57:31;101078.88;;;5.82;60.95
19286;BME280;9776;50.798;6.430;2023-02-16T01:00:02;101073.63;;;5.82;60.95
19286;BME280;9776;50.798;6.430;2023-02-16T01:02:30;101064.84;;;5.83;60.84
19286;BME280;9776;50.798;6.430;2023-02-16T01:04:57;101073.41;;;5.85;60.74
19286;BME280;9776;50.798;6.430;2023-02-16T01:07:24;101062.94;;;5.85;60.66
19286;BME280;9776;50.798;6.430;2023-02-16T01:10:10;101061.94;;;5.87;60.63
19286;BME280;9776;50.798;6.430;2023-02-16T01:12:55;101063.69;;;5.87;60.53
19286;BME280;9776;50.798;6.430;2023-02-16T01:15:23;101060.88;;;5.90;60.42
19286;BME280;9776;50.798;6.430;2023-02-16T01:17:51;101062.78;;;5.88;60.31
19286;BME280;9776;50.798;6.430;2023-02-16T01:20:19;101062.78;;;5.88;60.32
19286;BME280;9776;50.798;6.430;2023-02-16T01:22:46;101059.09;;;5.90;60.15
19286;BME280;9776;50.798;6.430;2023-02-16T01:25:15;101064.16;;;5.93;60.16
19286;BME280;9776;50.798;6.430;2023-02-16T01:27:42;101061.59;;;5.92;60.00
19286;BME280;9776;50.798;6.430;2023-02-16T01:30:12;101054.78;;;5.89;60.00
19286;BME280;9776;50.798;6.430;2023-02-16T01:32:39;101056.38;;;5.92;59.78
19286;BME280;9776;50.798;6.430;2023-02-16T01:35:06;101059.63;;;5.95;59.71
19286;BME280;9776;50.798;6.430;2023-02-16T01:37:33;101057.53;;;6.00;59.55
19286;BME280;9776;50.798;6.430;2023-02-16T01:40:00;101057.44;;;6.02;59.32
19286;BME280;9776;50.798;6.430;2023-02-16T01:42:34;101059.88;;;6.05;59.00
19286;BME280;9776;50.798;6.430;2023-02-16T01:45:04;101055.25;;;6.08;58.78
19286;BME280;9776;50.798;6.430;2023-02-16T01:47:37;101053.50;;;6.09;58.45
19286;BME280;9776;50.798;6.430;2023-02-16T01:50:16;101052.31;;;6.13;58.20
19286;BME280;9776;50.798;6.430;2023-02-16T01:52:44;101050.63;;;6.12;58.18
19286;BME280;9776;50.798;6.430;2023-02-16T01:55:16;101047.09;;;6.13;57.99
19286;BME280;9776;50.798;6.430;2023-02-16T01:57:48;101039.34;;;6.11;57.94
19286;BME280;9776;50.798;6.430;2023-02-16T02:00:22;101035.75;;;6.12;57.72
19286;BME280;9776;50.798;6.430;2023-02-16T02:02:53;101039.75;;;6.05;57.75
19286;BME280;9776;50.798;6.430;2023-02-16T02:05:42;101042.25;;;6.07;57.71
19286;BME280;9776;50.798;6.430;2023-02-16T02:08:14;101044.16;;;6.05;57.54
19286;BME280;9776;50.798;6.430;2023-02-16T02:10:51;101032.94;;;6.03;57.38
19286;BME280;9776;50.798;6.430;2023-02-16T02:13:27;101033.94;;;6.00;57.41
19286;BME280;9776;50.798;6.430;2023-02-16T02:15:56;101032.69;;;5.93;57.54
19286;BME280;9776;50.798;6.430;2023-02-16T02:18:23;101030.41;;;5.89;57.51
19286;BME280;9776;50.798;6.430;2023-02-16T02:21:08;101030.41;;;5.89;57.36
19286;BME280;9776;50.798;6.430;2023-02-16T02:24:11;101026.09;;;5.88;57.32
19286;BME280;9776;50.798;6.430;2023-02-16T02:27:01;101022.81;;;5.84;57.39
19286;BME280;9776;50.798;6.430;2023-02-16T02:29:42;101019.28;;;5.85;57.26
19286;BME280;9776;50.798;6.430;2023-02-16T02:32:20;101024.53;;;5.85;57.32
19286;BME280;9776;50.798;6.430;2023-02-16T02:35:05;101020.13;;;5.86;57.24
19286;BME280;9776;50.798;6.430;2023-02-16T02:37:45;101015.16;;;5.81;57.40
19286;BME280;9776;50.798;6.430;2023-02-16T02:40:17;101023.13;;;5.80;57.41
19286;BME280;9776;50.798;6.430;2023-02-16T02:42:59;101034.41;;;5.80;57.37
19286;BME280;9776;50.798;6.430;2023-02-16T02:45:33;101038.53;;;5.84;57.30
19286;BME280;9776;50.798;6.430;2023-02-16T02:48:00;101029.09;;;5.82;57.14
19286;BME280;9776;50.798;6.430;2023-02-16T02:50:46;101014.50;;;5.78;57.34
19286;BME280;9776;50.798;6.430;2023-02-16T02:53:28;101011.78;;;5.79;57.28
19286;BME280;9776;50.798;6.430;2023-02-16T02:55:57;101004.03;;;5.78;57.28
19286;BME280;9776;50.798;6.430;2023-02-16T02:58:45;101005.84;;;5.77;57.12
19286;BME280;9776;50.798;6.430;2023-02-16T03:01:35;101005.19;;;5.73;57.29
19286;BME280;9776;50.798;6.430;2023-02-16T03:04:05;100999.09;;;5.73;57.33
19286;BME280;9776;50.798;6.430;2023-02-16T03:06:37;101008.00;;;5.70;57.29
19286;BME280;9776;50.798;6.430;2023-02-16T03:09:09;101011.69;;;5.68;57.48
19286;BME280;9776;50.798;6.430;2023-02-16T03:11:37;101008.31;;;5.66;57.40
19286;BME280;9776;50.798;6.430;2023-02-16T03:14:26;101002.97;;;5.67;57.45
19286;BME280;9776;50.798;6.430;2023-02-16T03:16:57;101007.56;;;5.64;57.50
19286;BME280;9776;50.798;6.430;2023-02-16T03:19:43;100998.22;;;5.60;57.58
19286;BME280;9776;50.798;6.430;2023-02-16T03:22:27;100995.09;;;5.55;57.72
19286;BME280;9776;50.798;6.430;2023-02-16T03:25:12;100990.56;;;5.44;57.86
19286;BME280;9776;50.798;6.430;2023-02-16T03:27:57;100981.53;;;5.36;58.12
19286;BME280;9776;50.798;6.430;2023-02-16T03:30:45;100977.34;;;5.33;58.13
19286;BME280;9776;50.798;6.430;2023-02-16T03:33:13;100982.56;;;5.33;58.16
19286;BME280;9776;50.798;6.430;2023-02-16T03:35:40;100974.91;;;5.30;58.16
19286;BME280;9776;50.798;6.430;2023-02-16T03:38:07;100971.66;;;5.27;58.18
19286;BME280;9776;50.798;6.430;2023-02-16T03:40:34;100981.19;;;5.28;58.26
19286;BME280;9776;50.798;6.430;2023-02-16T03:43:06;100977.47;;;5.18;58.44
19286;BME280;9776;50.798;6.430;2023-02-16T03:45:35;100983.03;;;5.13;58.54
19286;BME280;9776;50.798;6.430;2023-02-16T03:48:04;100977.03;;;5.11;58.63
19286;BME280;9776;50.798;6.430;2023-02-16T03:50:31;100977.03;;;5.11;58.70
19286;BME280;9776;50.798;6.430;2023-02-16T03:52:58;100974.53;;;5.09;58.78
19286;BME280;9776;50.798;6.430;2023-02-16T03:55:32;100976.69;;;5.03;59.10
19286;BME280;9776;50.798;6.430;2023-02-16T03:57:59;100981.06;;;5.02;59.09
19286;BME280;9776;50.798;6.430;2023-02-16T04:00:26;100982.03;;;5.01;59.20
19286;BME280;9776;50.798;6.430;2023-02-16T04:02:53;100970.19;;;4.96;59.18
19286;BME280;9776;50.798;6.430;2023-02-16T04:05:21;100977.19;;;4.95;59.26
19286;BME280;9776;50.798;6.430;2023-02-16T04:07:48;100978.97;;;4.95;59.36
19286;BME280;9776;50.798;6.430;2023-02-16T04:10:15;100977.38;;;4.92;59.58
19286;BME280;9776;50.798;6.430;2023-02-16T04:12:41;100978.41;;;4.90;59.64
19286;BME280;9776;50.798;6.430;2023-02-16T04:15:10;100975.03;;;4.88;59.94
19286;BME280;9776;50.798;6.430;2023-02-16T04:17:37;100979.66;;;4.84;60.00
19286;BME280;9776;50.798;6.430;2023-02-16T04:20:05;100985.50;;;4.88;60.10
19286;BME280;9776;50.798;6.430;2023-02-16T04:22:34;100980.38;;;4.86;60.00
19286;BME280;9776;50.798;6.430;2023-02-16T04:25:00;100982.16;;;4.86;60.17
19286;BME280;9776;50.798;6.430;2023-02-16T04:27:27;100975.34;;;4.83;60.14
19286;BME280;9776;50.798;6.430;2023-02-16T04:29:54;100984.50;;;4.76;60.30
19286;BME280;9776;50.798;6.430;2023-02-16T04:32:21;100977.50;;;4.77;60.42
19286;BME280;9776;50.798;6.430;2023-02-16T04:34:47;100980.13;;;4.77;60.39
19286;BME280;9776;50.798;6.430;2023-02-16T04:37:14;100978.47;;;4.76;60.39
19286;BME280;9776;50.798;6.430;2023-02-16T04:39:42;100983.78;;;4.74;60.70
19286;BME280;9776;50.798;6.430;2023-02-16T04:42:09;100976.13;;;4.71;60.83
19286;BME280;9776;50.798;6.430;2023-02-16T04:44:35;100977.50;;;4.77;60.80
19286;BME280;9776;50.798;6.430;2023-02-16T04:47:02;100979.19;;;4.78;60.88
19286;BME280;9776;50.798;6.430;2023-02-16T04:49:29;100975.66;;;4.79;60.97
19286;BME280;9776;50.798;6.430;2023-02-16T04:51:55;100979.84;;;4.81;60.95
19286;BME280;9776;50.798;6.430;2023-02-16T04:54:22;100971.69;;;4.86;60.78
19286;BME280;9776;50.798;6.430;2023-02-16T04:56:50;100973.59;;;4.84;61.11
19286;BME280;9776;50.798;6.430;2023-02-16T04:59:17;100972.28;;;4.77;61.26
19286;BME280;9776;50.798;6.430;2023-02-16T05:01:44;100974.47;;;4.70;61.46
19286;BME280;9776;50.798;6.430;2023-02-16T05:04:11;100977.06;;;4.70;61.64
19286;BME280;9776;50.798;6.430;2023-02-16T05:06:37;100975.38;;;4.69;61.58
19286;BME280;9776;50.798;6.430;2023-02-16T05:09:05;100982.31;;;4.70;61.63
19286;BME280;9776;50.798;6.430;2023-02-16T05:11:32;100976.13;;;4.71;61.68
19286;BME280;9776;50.798;6.430;2023-02-16T05:14:21;100978.72;;;4.71;61.78
19286;BME280;9776;50.798;6.430;2023-02-16T05:17:06;100973.31;;;4.74;61.71
19286;BME280;9776;50.798;6.430;2023-02-16T05:19:32;100974.16;;;4.75;61.87
19286;BME280;9776;50.798;6.430;2023-02-16T05:21:59;100968.34;;;4.84;61.92
19286;BME280;9776;50.798;6.430;2023-02-16T05:24:26;100973.91;;;4.92;61.67
19286;BME280;9776;50.798;6.430;2023-02-16T05:26:52;100971.66;;;5.00;61.57
19286;BME280;9776;50.798;6.430;2023-02-16T05:29:21;100981.66;;;5.07;61.63
19286;BME280;9776;50.798;6.430;2023-02-16T05:31:47;100969.19;;;5.11;61.54
19286;BME280;9776;50.798;6.430;2023-02-16T05:34:14;100973.50;;;5.12;61.58
19286;BME280;9776;50.798;6.430;2023-02-16T05:36:41;100978.53;;;5.15;61.66
19286;BME280;9776;50.798;6.430;2023-02-16T05:39:07;100972.25;;;5.18;61.76
19286;BME280;9776;50.798;6.430;2023-02-16T05:41:34;100978.88;;;5.23;61.79
19286;BME280;9776;50.798;6.430;2023-02-16T05:44:02;100980.00;;;5.19;61.95
19286;BME280;9776;50.798;6.430;2023-02-16T05:46:33;100973.53;;;5.25;62.02
19286;BME280;9776;50.798;6.430;2023-02-16T05:49:00;100973.03;;;5.32;61.79
19286;BME280;9776;50.798;6.430;2023-02-16T05:51:28;100971.47;;;5.30;61.83
19286;BME280;9776;50.798;6.430;2023-02-16T05:53:55;100962.03;;;5.27;62.06
19286;BME280;9776;50.798;6.430;2023-02-16T05:56:22;100966.41;;;5.27;62.19
19286;BME280;9776;50.798;6.430;2023-02-16T05:58:49;100970.41;;;5.32;62.00
19286;BME280;9776;50.798;6.430;2023-02-16T06:01:16;100965.09;;;5.34;62.19
19286;BME280;9776;50.798;6.430;2023-02-16T06:03:44;100965.72;;;5.37;62.13
19286;BME280;9776;50.798;6.430;2023-02-16T06:06:12;100972.50;;;5.40;62.17
19286;BME280;9776;50.798;6.430;2023-02-16T06:08:39;100964.78;;;5.38;62.28
19286;BME280;9776;50.798;6.430;2023-02-16T06:11:06;100962.03;;;5.40;62.29
19286;BME280;9776;50.798;6.430;2023-02-16T06:13:53;100966.06;;;5.45;62.29
19286;BME280;9776;50.798;6.430;2023-02-16T06:16:23;100970.88;;;5.51;62.17
19286;BME280;9776;50.798;6.430;2023-02-16T06:18:51;100977.59;;;5.55;62.16
19286;BME280;9776;50.798;6.430;2023-02-16T06:21:18;100968.59;;;5.59;62.22
19286;BME280;9776;50.798;6.430;2023-02-16T06:23:45;100971.03;;;5.62;62.23
19286;BME280;9776;50.798;6.430;2023-02-16T06:26:12;100976.78;;;5.67;62.11
19286;BME280;9776;50.798;6.430;2023-02-16T06:28:39;100969.44;;;5.72;62.13
19286;BME280;9776;50.798;6.430;2023-02-16T06:31:07;100967.75;;;5.71;62.08
19286;BME280;9776;50.798;6.430;2023-02-16T06:33:34;100973.63;;;5.75;62.11
19286;BME280;9776;50.798;6.430;2023-02-16T06:36:03;100969.25;;;5.76;62.15
19286;BME280;9776;50.798;6.430;2023-02-16T06:38:29;100976.47;;;5.72;62.22
19286;BME280;9776;50.798;6.430;2023-02-16T06:40:56;100970.94;;;5.77;62.20
19286;BME280;9776;50.798;6.430;2023-02-16T06:43:23;100976.16;;;5.77;62.20
19286;BME280;9776;50.798;6.430;2023-02-16T06:45:49;100970.19;;;5.74;62.51
19286;BME280;9776;50.798;6.430;2023-02-16T06:48:16;100979.31;;;5.82;62.48
19286;BME280;9776;50.798;6.430;2023-02-16T06:50:43;100980.63;;;5.89;62.53
19286;BME280;9776;50.798;6.430;2023-02-16T06:53:11;100973.50;;;5.91;62.42
19286;BME280;9776;50.798;6.430;2023-02-16T06:55:38;100976.63;;;5.96;62.67
19286;BME280;9776;50.798;6.430;2023-02-16T06:58:05;100976.22;;;6.02;62.46
19286;BME280;9776;50.798;6.430;2023-02-16T07:00:33;100985.56;;;6.06;62.51
19286;BME280;9776;50.798;6.430;2023-02-16T07:03:00;100977.25;;;6.12;62.35
19286;BME280;9776;50.798;6.430;2023-02-16T07:05:27;100972.34;;;6.20;62.41
19286;BME280;9776;50.798;6.430;2023-02-16T07:07:54;100978.09;;;6.25;62.35
19286;BME280;9776;50.798;6.430;2023-02-16T07:10:22;100979.56;;;6.29;62.16
19286;BME280;9776;50.798;6.430;2023-02-16T07:12:49;100983.66;;;6.33;62.32
19286;BME280;9776;50.798;6.430;2023-02-16T07:15:15;100982.50;;;6.37;62.44
19286;BME280;9776;50.798;6.430;2023-02-16T07:17:42;100985.41;;;6.45;62.27
19286;BME280;9776;50.798;6.430;2023-02-16T07:20:09;100971.97;;;6.50;62.15
19286;BME280;9776;50.798;6.430;2023-02-16T07:22:38;100981.19;;;6.55;62.15
19286;BME280;9776;50.798;6.430;2023-02-16T07:25:05;100986.53;;;6.66;62.02
19286;BME280;9776;50.798;6.430;2023-02-16T07:27:33;100982.66;;;6.72;62.05
19286;BME280;9776;50.798;6.430;2023-02-16T07:30:00;100972.53;;;6.78;61.96
19286;BME280;9776;50.798;6.430;2023-02-16T07:32:28;100966.13;;;6.82;62.00
19286;BME280;9776;50.798;6.430;2023-02-16T07:34:55;100968.53;;;6.85;62.01
19286;BME280;9776;50.798;6.430;2023-02-16T07:37:21;100967.38;;;6.90;61.91
19286;BME280;9776;50.798;6.430;2023-02-16T07:39:48;100975.53;;;6.98;61.91
19286;BME280;9776;50.798;6.430;2023-02-16T07:42:15;100971.13;;;6.98;61.84
19286;BME280;9776;50.798;6.430;2023-02-16T07:44:43;100974.13;;;7.05;61.67
19286;BME280;9776;50.798;6.430;2023-02-16T07:47:09;100974.53;;;7.11;61.75
19286;BME280;9776;50.798;6.430;2023-02-16T07:49:40;100969.69;;;7.18;61.61
19286;BME280;9776;50.798;6.430;2023-02-16T07:52:07;100963.97;;;7.24;61.53
19286;BME280;9776;50.798;6.430;2023-02-16T07:54:34;100966.88;;;7.32;61.48
19286;BME280;9776;50.798;6.430;2023-02-16T07:57:01;100974.16;;;7.39;61.33
19286;BME280;9776;50.798;6.430;2023-02-16T07:59:27;100979.69;;;7.48;61.21
19286;BME280;9776;50.798;6.430;2023-02-16T08:01:55;100976.38;;;7.57;61.14
19286;BME280;9776;50.798;6.430;2023-02-16T08:04:22;100976.53;;;7.66;61.04
19286;BME280;9776;50.798;6.430;2023-02-16T08:06:49;100971.44;;;7.76;60.80
19286;BME280;9776;50.798;6.430;2023-02-16T08:09:16;100973.25;;;7.86;60.74
19286;BME280;9776;50.798;6.430;2023-02-16T08:11:42;100977.91;;;7.94;60.68
19286;BME280;9776;50.798;6.430;2023-02-16T08:14:09;100977.13;;;8.05;60.68
19286;BME280;9776;50.798;6.430;2023-02-16T08:16:36;100967.53;;;8.15;60.19
19286;BME280;9776;50.798;6.430;2023-02-16T08:19:05;100983.03;;;8.30;60.14
19286;BME280;9776;50.798;6.430;2023-02-16T08:21:33;100972.13;;;8.46;59.87
19286;BME280;9776;50.798;6.430;2023-02-16T08:24:02;100971.06;;;8.60;59.75
19286;BME280;9776;50.798;6.430;2023-02-16T08:26:32;100974.13;;;8.76;59.75
19286;BME280;9776;50.798;6.430;2023-02-16T08:29:01;100975.19;;;8.84;59.51
19286;BME280;9776;50.798;6.430;2023-02-16T08:31:29;100969.22;;;8.93;59.60
19286;BME280;9776;50.798;6.430;2023-02-16T08:33:57;100974.69;;;9.01;59.55
19286;BME280;9776;50.798;6.430;2023-02-16T08:36:28;100975.50;;;9.13;59.25
19286;BME280;9776;50.798;6.430;2023-02-16T08:38:57;100968.97;;;9.28;58.95
19286;BME280;9776;50.798;6.430;2023-02-16T08:41:32;100973.44;;;9.48;58.54
19286;BME280;9776;50.798;6.430;2023-02-16T08:44:00;100985.22;;;9.65;58.39
19286;BME280;9776;50.798;6.430;2023-02-16T08:46:27;100970.31;;;9.75;58.43
19286;BME280;9776;50.798;6.430;2023-02-16T08:48:54;100979.88;;;9.76;58.35
19286;BME280;9776;50.798;6.430;2023-02-16T08:51:25;100983.50;;;9.75;58.51
19286;BME280;9776;50.798;6.430;2023-02-16T08:53:59;100983.81;;;9.82;58.19
19286;BME280;9776;50.798;6.430;2023-02-16T08:56:26;100981.25;;;9.91;58.20
19286;BME280;9776;50.798;6.430;2023-02-16T08:58:53;100979.38;;;10.03;58.04
19286;BME280;9776;50.798;6.430;2023-02-16T09:01:20;100985.56;;;10.13;57.82
19286;BME280;9776;50.798;6.430;2023-02-16T09:03:48;100983.81;;;10.23;57.86
19286;BME280;9776;50.798;6.430;2023-02-16T09:06:16;100984.31;;;10.38;57.56
19286;BME280;9776;50.798;6.430;2023-02-16T09:08:44;100976.47;;;10.57;57.39
19286;BME280;9776;50.798;6.430;2023-02-16T09:11:14;100978.06;;;10.78;56.85
19286;BME280;9776;50.798;6.430;2023-02-16T09:13:42;100975.06;;;11.02;56.49
19286;BME280;9776;50.798;6.430;2023-02-16T09:16:11;100971.31;;;11.14;56.05
19286;BME280;9776;50.798;6.430;2023-02-16T09:18:40;100974.50;;;11.08;56.09
19286;BME280;9776;50.798;6.430;2023-02-16T09:21:10;100976.19;;;11.09;55.97
19286;BME280;9776;50.798;6.430;2023-02-16T09:23:38;100978.97;;;11.08;56.06
19286;BME280;9776;50.798;6.430;2023-02-16T09:26:05;100975.91;;;11.12;56.01
19286;BME280;9776;50.798;6.430;2023-02-16T09:28:34;100973.41;;;11.20;55.88
19286;BME280;9776;50.798;6.430;2023-02-16T09:31:07;100976.50;;;11.25;55.44
19286;BME280;9776;50.798;6.430;2023-02-16T09:33:35;100982.75;;;11.34;55.55
19286;BME280;9776;50.798;6.430;2023-02-16T09:36:03;100976.47;;;11.35;55.66
19286;BME280;9776;50.798;6.430;2023-02-16T09:38:31;100989.28;;;11.30;55.70
19286;BME280;9776;50.798;6.430;2023-02-16T09:41:03;100993.31;;;11.24;56.04
19286;BME280;9776;50.798;6.430;2023-02-16T09:43:42;100996.50;;;11.18;55.94
19286;BME280;9776;50.798;6.430;2023-02-16T09:46:12;101004.56;;;11.17;56.13
19286;BME280;9776;50.798;6.430;2023-02-16T09:48:43;101006.38;;;11.16;56.18
19286;BME280;9776;50.798;6.430;2023-02-16T09:51:15;101011.50;;;11.18;56.15
19286;BME280;9776;50.798;6.430;2023-02-16T09:53:46;101012.34;;;11.18;56.39
19286;BME280;9776;50.798;6.430;2023-02-16T09:56:25;101006.50;;;11.15;56.15
19286;BME280;9776;50.798;6.430;2023-02-16T09:58:57;101015.13;;;11.17;56.29
19286;BME280;9776;50.798;6.430;2023-02-16T10:01:32;101025.16;;;11.13;56.60
19286;BME280;9776;50.798;6.430;2023-02-16T10:04:13;101021.50;;;11.14;56.68
19286;BME280;9776;50.798;6.430;2023-02-16T10:06:52;101014.44;;;11.15;56.72
19286;BME280;9776;50.798;6.430;2023-02-16T10:09:24;101020.13;;;11.20;56.61
19286;BME280;9776;50.798;6.430;2023-02-16T10:11:57;101017.94;;;11.25;56.84
19286;BME280;9776;50.798;6.430;2023-02-16T10:14:32;101016.13;;;11.35;56.48
19286;BME280;9776;50.798;6.430;2023-02-16T10:17:14;101023.94;;;11.46;56.28
19286;BME280;9776;50.798;6.430;2023-02-16T10:19:45;101012.81;;;11.62;55.99
19286;BME280;9776;50.798;6.430;2023-02-16T10:22:19;101006.84;;;11.69;55.97
19286;BME280;9776;50.798;6.430;2023-02-16T10:24:54;101016.59;;;11.78;55.77
19286;BME280;9776;50.798;6.430;2023-02-16T10:27:26;101001.56;;;11.88;55.64
19286;BME280;9776;50.798;6.430;2023-02-16T10:29:58;101005.97;;;12.07;55.16
19286;BME280;9776;50.798;6.430;2023-02-16T10:32:26;101002.56;;;12.24;54.84
19286;BME280;9776;50.798;6.430;2023-02-16T10:35:02;101008.81;;;12.42;54.41
19286;BME280;9776;50.798;6.430;2023-02-16T10:37:45;101008.63;;;12.53;54.06
19286;BME280;9776;50.798;6.430;2023-02-16T10:40:21;101016.38;;;12.65;54.13
19286;BME280;9776;50.798;6.430;2023-02-16T10:42:56;101005.47;;;12.68;53.90
19286;BME280;9776;50.798;6.430;2023-02-16T10:45:29;101012.38;;;12.61;54.00
19286;BME280;9776;50.798;6.430;2023-02-16T10:47:57;101008.91;;;12.50;54.33
19286;BME280;9776;50.798;6.430;2023-02-16T10:50:26;101005.31;;;12.42;54.59
19286;BME280;9776;50.798;6.430;2023-02-16T10:52:57;101005.88;;;12.36;54.77
19286;BME280;9776;50.798;6.430;2023-02-16T10:55:26;100998.28;;;12.23;55.17
19286;BME280;9776;50.798;6.430;2023-02-16T10:57:54;101005.78;;;12.18;55.28
19286;BME280;9776;50.798;6.430;2023-02-16T11:00:32;100995.50;;;12.15;55.25
19286;BME280;9776;50.798;6.430;2023-02-16T11:03:01;100987.31;;;12.09;55.44
19286;BME280;9776;50.798;6.430;2023-02-16T11:05:35;100980.34;;;12.08;55.57
19286;BME280;9776;50.798;6.430;2023-02-16T11:08:03;100981.31;;;12.07;55.78
19286;BME280;9776;50.798;6.430;2023-02-16T11:10:40;100973.09;;;12.10;55.53
19286;BME280;9776;50.798;6.430;2023-02-16T11:13:27;100976.44;;;12.12;55.69
19286;BME280;9776;50.798;6.430;2023-02-16T11:15:59;100977.81;;;12.16;55.45
19286;BME280;9776;50.798;6.430;2023-02-16T11:18:33;100984.34;;;12.21;55.57
19286;BME280;9776;50.798;6.430;2023-02-16T11:21:02;100983.09;;;12.25;55.61
19286;BME280;9776;50.798;6.430;2023-02-16T11:23:31;100975.81;;;12.27;55.32
19286;BME280;9776;50.798;6.430;2023-02-16T11:26:00;100975.94;;;12.35;55.47
19286;BME280;9776;50.798;6.430;2023-02-16T11:28:31;100979.56;;;12.34;55.45
19286;BME280;9776;50.798;6.430;2023-02-16T11:31:03;100981.38;;;12.34;55.26
19286;BME280;9776;50.798;6.430;2023-02-16T11:33:36;100982.78;;;12.28;55.62
19286;BME280;9776;50.798;6.430;2023-02-16T11:36:17;100973.75;;;12.21;55.63
19286;BME280;9776;50.798;6.430;2023-02-16T11:38:55;100966.66;;;12.22;55.57
19286;BME280;9776;50.798;6.430;2023-02-16T11:41:23;100969.41;;;12.30;55.74
19286;BME280;9776;50.798;6.430;2023-02-16T11:43:52;100968.97;;;12.34;55.64
19286;BME280;9776;50.798;6.430;2023-02-16T11:46:21;100976.63;;;12.37;55.64
19286;BME280;9776;50.798;6.430;2023-02-16T11:48:48;100974.97;;;12.36;55.66
19286;BME280;9776;50.798;6.430;2023-02-16T11:51:29;100978.06;;;12.32;55.41
19286;BME280;9776;50.798;6.430;2023-02-16T11:53:59;100974.28;;;12.34;55.58
19286;BME280;9776;50.798;6.430;2023-02-16T11:56:28;100974.97;;;12.36;55.63
19286;BME280;9776;50.798;6.430;2023-02-16T11:59:06;100972.47;;;12.35;55.43
19286;BME280;9776;50.798;6.430;2023-02-16T12:01:51;100970.88;;;12.42;55.43
19286;BME280;9776;50.798;6.430;2023-02-16T12:04:32;100969.56;;;12.56;55.14
19286;BME280;9776;50.798;6.430;2023-02-16T12:07:09;100963.41;;;12.65;54.97
19286;BME280;9776;50.798;6.430;2023-02-16T12:09:45;100965.06;;;12.66;54.85
19286;BME280;9776;50.798;6.430;2023-02-16T12:12:16;100960.38;;;12.60;54.99
19286;BME280;9776;50.798;6.430;2023-02-16T12:14:56;100969.69;;;12.64;54.94
19286;BME280;9776;50.798;6.430;2023-02-16T12:17:41;100958.09;;;12.65;54.86
19286;BME280;9776;50.798;6.430;2023-02-16T12:20:28;100965.63;;;12.69;54.97
19286;BME280;9776;50.798;6.430;2023-02-16T12:23:03;100961.97;;;12.70;54.91
19286;BME280;9776;50.798;6.430;2023-02-16T12:25:38;100963.19;;;12.76;55.01
19286;BME280;9776;50.798;6.430;2023-02-16T12:28:16;100962.31;;;12.85;54.80
19286;BME280;9776;50.798;6.430;2023-02-16T12:30:53;100953.03;;;12.98;54.79
19286;BME280;9776;50.798;6.430;2023-02-16T12:33:34;100945.41;;;13.13;54.08
19286;BME280;9776;50.798;6.430;2023-02-16T12:36:30;100934.00;;;13.30;53.86
19286;BME280;9776;50.798;6.430;2023-02-16T12:39:04;100933.91;;;13.83;52.94
19286;BME280;9776;50.798;6.430;2023-02-16T12:41:44;100926.19;;;14.57;51.71
19286;BME280;9776;50.798;6.430;2023-02-16T12:44:15;100933.03;;;15.26;50.08
19286;BME280;9776;50.798;6.430;2023-02-16T12:46:45;100928.41;;;15.52;49.70
19286;BME280;9776;50.798;6.430;2023-02-16T12:49:18;100916.09;;;15.51;49.32
19286;BME280;9776;50.798;6.430;2023-02-16T12:51:52;100920.09;;;15.55;49.34
19286;BME280;9776;50.798;6.430;2023-02-16T12:54:23;100923.72;;;15.70;49.34
19286;BME280;9776;50.798;6.430;2023-02-16T12:56:58;100924.06;;;15.51;49.15
19286;BME280;9776;50.798;6.430;2023-02-16T12:59:33;100915.06;;;15.36;49.48
19286;BME280;9776;50.798;6.430;2023-02-16T13:02:03;100922.56;;;15.41;49.70
19286;BME280;9776;50.798;6.430;2023-02-16T13:04:37;100921.75;;;15.72;49.13
19286;BME280;9776;50.798;6.430;2023-02-16T13:07:12;100918.50;;;16.09;48.39
19286;BME280;9776;50.798;6.430;2023-02-16T13:09:50;100919.50;;;16.08;48.38
19286;BME280;9776;50.798;6.430;2023-02-16T13:12:25;100914.00;;;16.02;48.50
19286;BME280;9776;50.798;6.430;2023-02-16T13:15:00;100907.06;;;16.48;47.72
19286;BME280;9776;50.798;6.430;2023-02-16T13:17:32;100913.19;;;16.87;46.82
19286;BME280;9776;50.798;6.430;2023-02-16T13:20:01;100899.34;;;17.37;45.75
19286;BME280;9776;50.798;6.430;2023-02-16T13:25:44;100906.81;;;17.19;45.93
19286;BME280;9776;50.798;6.430;2023-02-16T13:28:34;100895.78;;;16.99;46.13
19286;BME280;9776;50.798;6.430;2023-02-16T13:31:12;100894.06;;;16.83;46.09